Time;durP1;ratioP1;P1;durP2;ratioP2;P2;SDS_P1;SDS_P2;PMS_P1;PMS_P2;Temp;Humidity;BMP_temperature;BMP_pressure;BME280_temperature;BME280_humidity;BME280_pressure;Samples;Min_cycle;Max_cycle;Signal;HPM_P1;HPM_P2
2023/01/22 00:01:08;;;;;;;;;34.00;23.00;;;;;4.70;100.00;102935.44;4992939;28;64592;-75
2023/01/22 00:03:35;;;;;;;;;25.00;21.50;;;;;4.70;100.00;102931.91;4990489;28;45906;-72
2023/01/22 00:06:00;;;;;;;;;24.75;18.00;;;;;4.65;100.00;102933.31;4982856;28;45582;-72
2023/01/22 00:08:26;;;;;;;;;26.25;23.00;;;;;4.64;100.00;102935.03;4986087;28;45515;-73
2023/01/22 00:10:52;;;;;;;;;29.25;23.00;;;;;4.65;100.00;102925.47;4986942;28;46619;-75
2023/01/22 00:13:19;;;;;;;;;24.75;22.75;;;;;4.67;100.00;102934.31;4993987;28;45467;-74
2023/01/22 00:15:44;;;;;;;;;29.75;22.25;;;;;4.67;100.00;102936.94;4994154;28;45511;-73
2023/01/22 00:18:10;;;;;;;;;26.50;22.00;;;;;4.68;100.00;102933.50;4993529;28;45516;-75
2023/01/22 00:20:35;;;;;;;;;32.50;22.25;;;;;4.68;100.00;102925.66;4994711;28;46322;-73
2023/01/22 00:23:00;;;;;;;;;34.00;22.00;;;;;4.65;100.00;102928.97;4984250;28;51700;-73
2023/01/22 00:25:26;;;;;;;;;26.25;19.75;;;;;4.61;100.00;102920.81;4991983;28;45525;-73
2023/01/22 00:27:51;;;;;;;;;34.50;25.50;;;;;4.58;100.00;102924.16;4991744;28;52775;-74
2023/01/22 00:30:16;;;;;;;;;28.00;24.75;;;;;4.58;100.00;102921.53;4990059;28;62799;-73
2023/01/22 00:32:42;;;;;;;;;25.50;21.50;;;;;4.58;100.00;102924.16;4992839;28;59995;-74
2023/01/22 00:35:07;;;;;;;;;26.50;21.50;;;;;4.60;100.00;102927.75;4993953;28;54942;-73
2023/01/22 00:37:32;;;;;;;;;25.50;19.00;;;;;4.62;100.00;102925.25;4990652;28;47229;-73
2023/01/22 00:39:58;;;;;;;;;29.25;22.50;;;;;4.63;100.00;102930.56;4985215;28;59283;-73
2023/01/22 00:42:24;;;;;;;;;27.75;21.25;;;;;4.62;100.00;102923.53;4992639;28;45364;-73
2023/01/22 00:44:49;;;;;;;;;25.75;22.50;;;;;4.61;100.00;102921.72;4991029;28;45571;-72
2023/01/22 00:47:15;;;;;;;;;30.75;20.75;;;;;4.62;100.00;102922.63;4991397;28;45581;-74
2023/01/22 00:49:41;;;;;;;;;26.00;23.25;;;;;4.61;100.00;102926.94;4987249;28;46698;-73
2023/01/22 00:52:07;;;;;;;;;24.75;19.75;;;;;4.58;100.00;102924.16;4992723;28;45540;-73
2023/01/22 00:54:32;;;;;;;;;29.75;17.75;;;;;4.60;100.00;102938.22;4992863;28;45399;-73
2023/01/22 00:56:57;;;;;;;;;29.50;20.25;;;;;4.62;100.00;102927.84;4993387;28;45424;-75
2023/01/22 00:59:23;;;;;;;;;26.00;23.75;;;;;4.64;100.00;102919.31;4990403;28;46278;-75
2023/01/22 01:01:48;;;;;;;;;31.50;20.75;;;;;4.64;100.00;102913.19;4993013;28;45353;-74
2023/01/22 01:04:13;;;;;;;;;31.00;22.25;;;;;4.62;100.00;102913.06;4993820;28;45206;-73
2023/01/22 01:06:39;;;;;;;;;32.75;25.25;;;;;4.64;100.00;102921.94;4989335;28;45556;-73
2023/01/22 01:09:05;;;;;;;;;29.50;21.25;;;;;4.61;100.00;102905.13;4995276;28;45723;-74
2023/01/22 01:11:30;;;;;;;;;29.00;19.75;;;;;4.60;100.00;102905.94;4994948;28;45467;-73
2023/01/22 01:13:56;;;;;;;;;34.50;22.75;;;;;4.58;100.00;102905.81;4990548;28;45483;-73
2023/01/22 01:16:25;;;;;;;;;25.50;18.75;;;;;4.58;100.00;102897.03;4989371;28;45500;-74
2023/01/22 01:18:51;;;;;;;;;31.75;21.75;;;;;4.59;100.00;102902.41;4995549;28;45546;-73
2023/01/22 01:21:18;;;;;;;;;29.75;19.75;;;;;4.59;100.00;102902.41;4989298;28;45507;-73
2023/01/22 01:23:43;;;;;;;;;27.25;16.75;;;;;4.62;100.00;102912.16;4995704;28;45421;-75
2023/01/22 01:26:11;;;;;;;;;30.00;20.75;;;;;4.62;100.00;102905.22;4993956;28;45407;-75
2023/01/22 01:28:37;;;;;;;;;28.00;18.75;;;;;4.59;100.00;102912.88;4995162;28;45886;-73
2023/01/22 01:31:08;;;;;;;;;29.00;24.75;;;;;4.61;100.00;102913.88;4993792;28;45448;-74
2023/01/22 01:33:33;;;;;;;;;30.25;24.50;;;;;4.58;100.00;102910.13;4993155;28;45923;-73
2023/01/22 01:36:05;;;;;;;;;33.25;25.25;;;;;4.58;100.00;102921.53;4994996;28;46722;-73
2023/01/22 01:38:30;;;;;;;;;32.50;22.00;;;;;4.55;100.00;102930.84;4995429;28;46697;-75
2023/01/22 01:40:56;;;;;;;;;24.00;19.75;;;;;4.54;100.00;102929.06;4995815;28;45479;-73
2023/01/22 01:43:21;;;;;;;;;26.50;23.00;;;;;4.51;100.00;102926.22;4999168;28;45509;-73
2023/01/22 01:45:46;;;;;;;;;26.00;21.00;;;;;4.53;100.00;102930.75;4994608;28;52666;-76
2023/01/22 01:48:20;;;;;;;;;35.00;23.25;;;;;4.54;100.00;102934.28;4995702;28;63479;-74
2023/01/22 01:50:51;;;;;;;;;39.75;29.25;;;;;4.53;100.00;102930.75;4997971;28;45493;-74
2023/01/22 01:53:17;;;;;;;;;34.25;23.00;;;;;4.51;100.00;102919.25;4991543;28;45563;-73
2023/01/22 01:55:42;;;;;;;;;21.25;18.25;;;;;4.51;100.00;102927.13;4996468;28;56027;-74
2023/01/22 01:58:13;;;;;;;;;23.25;20.50;;;;;4.46;100.00;102928.50;4997952;28;60380;-73
2023/01/22 02:00:39;;;;;;;;;29.75;20.25;;;;;4.44;100.00;102925.78;4997446;28;45301;-74
2023/01/22 02:03:05;;;;;;;;;31.25;24.50;;;;;4.44;100.00;102920.56;4998518;28;45438;-73
2023/01/22 02:05:35;;;;;;;;;24.50;22.00;;;;;4.46;100.00;102915.44;4998535;28;56495;-73
2023/01/22 02:08:00;;;;;;;;;33.25;22.75;;;;;4.47;100.00;102909.38;4997735;28;45515;-76
2023/01/22 02:10:25;;;;;;;;;29.75;18.50;;;;;4.46;100.00;102902.34;4996859;28;45492;-73
2023/01/22 02:12:53;;;;;;;;;28.00;23.00;;;;;4.47;100.00;102914.63;4992191;28;45305;-73
2023/01/22 02:15:18;;;;;;;;;27.75;21.00;;;;;4.45;100.00;102905.78;4995745;28;45317;-75
2023/01/22 02:17:44;;;;;;;;;34.50;22.00;;;;;4.43;100.00;102904.78;4997089;28;63930;-75
2023/01/22 02:20:10;;;;;;;;;29.00;19.50;;;;;4.40;100.00;102910.69;4996145;28;48398;-74
2023/01/22 02:22:36;;;;;;;;;36.75;26.25;;;;;4.40;100.00;102920.25;4992896;28;45420;-73
2023/01/22 02:25:02;;;;;;;;;26.00;18.75;;;;;4.41;100.00;102922.94;4997406;28;45372;-73
2023/01/22 02:27:27;;;;;;;;;23.50;18.00;;;;;4.43;100.00;102928.31;4992564;28;46584;-73
2023/01/22 02:29:52;;;;;;;;;30.50;26.00;;;;;4.46;100.00;102931.13;4997708;28;45396;-73
2023/01/22 02:32:18;;;;;;;;;27.75;20.50;;;;;4.47;100.00;102925.06;4997610;28;52804;-73
2023/01/22 02:34:44;;;;;;;;;33.00;25.00;;;;;4.48;100.00;102924.31;4998212;28;45444;-73
2023/01/22 02:37:09;;;;;;;;;28.00;19.25;;;;;4.47;100.00;102912.94;4995406;28;45560;-74
2023/01/22 02:39:34;;;;;;;;;29.25;26.25;;;;;4.48;100.00;102916.47;4998066;28;45281;-72
2023/01/22 02:42:02;;;;;;;;;29.25;25.25;;;;;4.45;100.00;102919.75;4996101;28;45348;-73
2023/01/22 02:44:27;;;;;;;;;33.25;22.50;;;;;4.44;100.00;102922.28;4994860;28;45495;-73
2023/01/22 02:46:53;;;;;;;;;26.75;23.00;;;;;4.44;100.00;102910.09;4994722;28;62241;-73
2023/01/22 02:49:18;;;;;;;;;36.00;26.00;;;;;4.46;100.00;102921.56;4997541;28;56363;-73
2023/01/22 02:51:43;;;;;;;;;27.00;21.75;;;;;4.49;100.00;102917.38;4993042;28;55260;-75
2023/01/22 02:54:09;;;;;;;;;30.00;23.00;;;;;4.51;100.00;102924.50;4993512;28;45653;-73
2023/01/22 02:56:34;;;;;;;;;39.25;25.75;;;;;4.52;100.00;102928.03;4995490;28;62478;-74
2023/01/22 02:59:00;;;;;;;;;40.50;24.50;;;;;4.51;100.00;102916.66;4997390;28;54721;-76
2023/01/22 03:01:26;;;;;;;;;27.25;21.25;;;;;4.54;100.00;102923.81;4993839;28;45235;-75
2023/01/22 03:04:11;;;;;;;;;33.00;28.25;;;;;4.51;100.00;102914.03;4998089;28;45629;-74
2023/01/22 03:06:43;;;;;;;;;37.25;27.50;;;;;4.51;100.00;102921.88;4996250;28;46636;-73
2023/01/22 03:09:09;;;;;;;;;38.75;32.00;;;;;4.51;100.00;102927.13;4997478;28;45432;-73
2023/01/22 03:11:36;;;;;;;;;37.25;26.25;;;;;4.51;100.00;102928.81;4997485;28;45282;-74
2023/01/22 03:22:15;;;;;;;;;39.75;33.50;;;;;4.57;100.00;102922.31;4993869;28;45519;-76
2023/01/22 03:24:41;;;;;;;;;33.50;26.50;;;;;4.55;100.00;102923.91;4997717;28;45534;-73
2023/01/22 03:27:06;;;;;;;;;41.00;33.75;;;;;4.54;100.00;102918.59;4993737;28;47072;-73
2023/01/22 03:29:32;;;;;;;;;24.50;24.50;;;;;4.54;100.00;102921.19;4994066;28;60138;-74
2023/01/22 03:31:58;;;;;;;;;35.25;25.25;;;;;4.52;100.00;102921.06;4994537;28;45299;-73
2023/01/22 03:34:24;;;;;;;;;35.25;25.50;;;;;4.51;100.00;102926.22;4997178;28;45607;-72
2023/01/22 03:36:49;;;;;;;;;36.50;30.25;;;;;4.50;100.00;102927.91;4992030;28;45304;-74
2023/01/22 03:39:15;;;;;;;;;40.50;27.00;;;;;4.50;100.00;102916.56;4989711;28;62497;-76
2023/01/22 03:41:40;;;;;;;;;40.50;30.75;;;;;4.47;100.00;102909.38;4996108;28;59382;-73
2023/01/22 03:44:10;;;;;;;;;30.50;19.00;;;;;4.48;100.00;102903.38;4997055;28;45569;-73
2023/01/22 03:46:36;;;;;;;;;30.00;27.25;;;;;4.47;100.00;102912.94;4996031;28;46314;-74
2023/01/22 03:49:01;;;;;;;;;36.75;30.00;;;;;4.44;100.00;102904.88;4995906;28;45293;-74
2023/01/22 03:51:27;;;;;;;;;38.50;32.50;;;;;4.48;100.00;102913.84;4996805;28;45609;-75
2023/01/22 03:53:52;;;;;;;;;32.50;25.00;;;;;4.47;100.00;102923.41;4995828;28;45582;-73
2023/01/22 03:56:22;;;;;;;;;38.00;27.75;;;;;4.50;100.00;102924.41;4991695;28;63271;-73
2023/01/22 03:58:48;;;;;;;;;39.75;28.00;;;;;4.50;100.00;102917.47;4995316;28;45250;-73
2023/01/22 04:01:16;;;;;;;;;31.50;22.50;;;;;4.54;100.00;102922.09;4996697;28;45504;-73
2023/01/22 04:03:41;;;;;;;;;39.50;28.50;;;;;4.53;100.00;102911.50;4993870;28;45559;-74
2023/01/22 04:06:08;;;;;;;;;30.75;23.00;;;;;4.54;100.00;102921.19;4993075;28;61610;-73
2023/01/22 04:08:35;;;;;;;;;35.25;22.50;;;;;4.52;100.00;102913.22;4993055;28;45391;-74
2023/01/22 04:11:01;;;;;;;;;26.50;22.75;;;;;4.51;100.00;102907.91;4994559;28;45712;-73
2023/01/22 04:13:28;;;;;;;;;25.75;25.00;;;;;4.50;100.00;102904.38;4996458;28;45470;-73
2023/01/22 04:15:54;;;;;;;;;33.75;21.25;;;;;4.50;100.00;102899.16;4991503;28;46494;-74
2023/01/22 04:18:19;;;;;;;;;29.50;21.75;;;;;4.50;100.00;102903.47;4991914;28;45348;-73
2023/01/22 04:20:47;;;;;;;;;37.25;21.25;;;;;4.52;100.00;102915.84;4996255;28;45437;-73
2023/01/22 04:23:12;;;;;;;;;23.75;21.25;;;;;4.53;100.00;102914.13;4996283;28;45190;-73
2023/01/22 04:25:38;;;;;;;;;31.50;26.50;;;;;4.54;100.00;102911.66;4996762;28;46408;-75
2023/01/22 04:28:03;;;;;;;;;38.75;23.75;;;;;4.54;100.00;102911.66;4995691;28;45495;-74
2023/01/22 04:30:30;;;;;;;;;29.50;21.00;;;;;4.55;100.00;102910.84;4992052;28;45420;-73
2023/01/22 04:32:55;;;;;;;;;32.25;19.00;;;;;4.55;100.00;102916.06;4994709;28;45619;-74
2023/01/22 04:35:21;;;;;;;;;33.00;26.25;;;;;4.54;100.00;102911.66;4996522;28;46332;-75
2023/01/22 04:37:46;;;;;;;;;34.00;24.75;;;;;4.55;100.00;102908.22;4992293;28;45388;-73
2023/01/22 04:40:12;;;;;;;;;24.75;20.75;;;;;4.54;100.00;102902.91;4994009;28;53467;-74
2023/01/22 04:42:37;;;;;;;;;25.00;22.75;;;;;4.56;100.00;102907.41;4995402;28;45564;-73
2023/01/22 04:45:03;;;;;;;;;38.50;29.25;;;;;4.53;100.00;102912.44;4995182;28;46213;-73
2023/01/22 04:47:28;;;;;;;;;34.50;23.25;;;;;4.52;100.00;102894.91;4996469;28;45354;-73
2023/01/22 04:49:53;;;;;;;;;32.50;20.75;;;;;4.51;100.00;102887.88;4995619;28;54302;-73
2023/01/22 04:52:19;;;;;;;;;20.00;11.25;;;;;4.49;100.00;102885.97;4989496;28;56527;-75
2023/01/22 04:54:44;;;;;;;;;22.00;18.75;;;;;4.45;100.00;102890.06;4991463;28;46838;-73
2023/01/22 04:57:10;;;;;;;;;24.00;17.50;;;;;4.38;100.00;102888.75;4988140;28;45368;-74
2023/01/22 04:59:36;;;;;;;;;25.50;21.25;;;;;4.30;100.00;102879.47;4996179;28;45373;-73
2023/01/22 05:02:01;;;;;;;;;30.75;21.00;;;;;4.27;100.00;102883.59;4995296;28;45178;-73
2023/01/22 05:04:26;;;;;;;;;31.50;21.00;;;;;4.26;100.00;102886.97;4994561;28;45506;-75
2023/01/22 05:06:52;;;;;;;;;35.25;21.75;;;;;4.26;100.00;102881.75;4994772;28;60830;-73
2023/01/22 05:09:17;;;;;;;;;22.00;18.00;;;;;4.28;100.00;102888.91;4993042;28;55899;-73
2023/01/22 05:11:42;;;;;;;;;29.50;23.00;;;;;4.29;100.00;102888.09;4990871;28;46550;-72
2023/01/22 05:14:08;;;;;;;;;29.00;18.50;;;;;4.28;100.00;102882.78;4995331;28;45611;-73
2023/01/22 05:16:33;;;;;;;;;30.25;18.00;;;;;4.28;100.00;102880.16;4996776;28;58367;-76
2023/01/22 05:18:59;;;;;;;;;25.50;18.75;;;;;4.29;100.00;102884.59;4995994;28;50012;-73
2023/01/22 05:21:24;;;;;;;;;33.50;24.50;;;;;4.31;100.00;102880.38;4995984;28;45352;-73
2023/01/22 05:23:49;;;;;;;;;28.25;21.50;;;;;4.32;100.00;102882.19;4990413;28;62484;-73
2023/01/22 05:26:15;;;;;;;;;23.75;17.50;;;;;4.34;100.00;102872.75;4998721;28;60565;-72
2023/01/22 05:28:40;;;;;;;;;20.50;17.00;;;;;4.34;100.00;102870.13;4996950;28;54856;-76
2023/01/22 05:31:05;;;;;;;;;19.00;17.25;;;;;4.38;100.00;102869.53;4997452;28;47778;-72
2023/01/22 05:33:31;;;;;;;;;27.00;17.75;;;;;4.40;100.00;102875.78;4998999;28;45489;-73
2023/01/22 05:35:58;;;;;;;;;32.00;22.50;;;;;4.40;100.00;102875.78;4994993;28;45793;-73
2023/01/22 05:38:23;;;;;;;;;26.50;23.00;;;;;4.42;100.00;102880.31;4996392;28;45483;-76
2023/01/22 05:40:49;;;;;;;;;26.00;22.00;;;;;4.42;100.00;102871.53;4995206;28;45404;-73
2023/01/22 05:43:14;;;;;;;;;28.50;19.00;;;;;4.42;100.00;102872.47;4997535;28;61046;-73
2023/01/22 05:45:39;;;;;;;;;24.50;18.25;;;;;4.42;100.00;102875.09;4998688;28;61933;-73
2023/01/22 05:48:05;;;;;;;;;29.00;22.00;;;;;4.46;100.00;102870.97;4998250;28;52922;-74
2023/01/22 05:50:30;;;;;;;;;28.50;21.50;;;;;4.46;100.00;102869.25;4998488;28;57788;-73
2023/01/22 05:52:55;;;;;;;;;33.25;23.50;;;;;4.44;100.00;102865.63;4992879;28;46652;-73
2023/01/22 05:55:21;;;;;;;;;28.75;22.25;;;;;4.43;100.00;102855.06;4997176;28;57541;-76
2023/01/22 05:57:47;;;;;;;;;30.25;23.50;;;;;4.45;100.00;102862.22;4998792;28;45499;-73
2023/01/22 06:00:13;;;;;;;;;33.00;23.50;;;;;4.44;100.00;102859.50;4999014;28;45615;-75
2023/01/22 06:02:38;;;;;;;;;28.75;23.00;;;;;4.42;100.00;102868.94;4996546;28;47544;-73
2023/01/22 06:05:04;;;;;;;;;22.25;18.75;;;;;4.42;100.00;102866.31;4998633;28;45250;-73
2023/01/22 06:07:29;;;;;;;;;29.00;23.25;;;;;4.43;100.00;102868.16;4998289;28;45938;-73
2023/01/22 06:09:55;;;;;;;;;35.75;26.50;;;;;4.45;100.00;102861.31;4997716;28;53460;-75
2023/01/22 06:12:20;;;;;;;;;25.00;21.50;;;;;4.48;100.00;102872.00;4997822;28;59533;-73
2023/01/22 06:14:46;;;;;;;;;22.25;18.50;;;;;4.50;100.00;102865.16;4995108;28;45480;-73
2023/01/22 06:17:11;;;;;;;;;28.50;19.75;;;;;4.51;100.00;102876.50;4998405;28;45289;-76
2023/01/22 06:19:36;;;;;;;;;26.25;18.75;;;;;4.52;100.00;102873.09;4997915;28;46860;-73
2023/01/22 06:22:02;;;;;;;;;28.75;17.75;;;;;4.51;100.00;102881.75;4997575;28;57392;-75
2023/01/22 06:24:27;;;;;;;;;22.75;18.50;;;;;4.46;100.00;102881.41;4998020;28;59815;-76
2023/01/22 06:26:52;;;;;;;;;26.75;22.75;;;;;4.41;100.00;102873.25;4996245;28;45572;-73
2023/01/22 06:29:18;;;;;;;;;24.75;21.25;;;;;4.36;100.00;102868.50;4997309;28;52383;-72
2023/01/22 06:31:43;;;;;;;;;32.25;23.00;;;;;4.32;100.00;102871.75;4997443;28;45951;-75
2023/01/22 06:34:09;;;;;;;;;31.25;21.75;;;;;4.23;100.00;102865.88;4997754;28;59153;-72
2023/01/22 06:36:34;;;;;;;;;25.75;23.00;;;;;4.20;100.00;102875.28;4994677;28;46075;-73
2023/01/22 06:38:59;;;;;;;;;29.75;18.75;;;;;4.16;100.00;102870.69;4997227;28;45479;-73
2023/01/22 06:41:25;;;;;;;;;30.25;21.75;;;;;4.15;100.00;102874.06;4994863;28;45190;-73
2023/01/22 06:43:50;;;;;;;;;27.00;19.50;;;;;4.16;100.00;102893.31;4992450;28;60835;-73
2023/01/22 06:46:15;;;;;;;;;29.25;20.00;;;;;4.14;100.00;102885.31;4997517;28;54315;-72
2023/01/22 06:48:42;;;;;;;;;24.50;18.25;;;;;4.17;100.00;102889.88;4997694;28;45984;-73
2023/01/22 06:51:09;;;;;;;;;32.50;23.00;;;;;4.21;100.00;102876.22;4997835;28;46339;-75
2023/01/22 06:53:34;;;;;;;;;23.25;16.25;;;;;4.23;100.00;102884.16;4993023;28;45547;-73
2023/01/22 06:56:00;;;;;;;;;29.25;21.50;;;;;4.27;100.00;102886.22;4993851;28;46545;-73
2023/01/22 06:58:25;;;;;;;;;28.75;20.50;;;;;4.28;100.00;102888.91;4994796;28;45644;-73
2023/01/22 07:00:50;;;;;;;;;37.00;22.00;;;;;4.26;100.00;102887.91;4997168;28;60671;-76
2023/01/22 07:03:16;;;;;;;;;25.75;21.25;;;;;4.27;100.00;102891.44;4994947;28;45595;-73
2023/01/22 07:05:41;;;;;;;;;34.00;22.50;;;;;4.27;100.00;102894.06;4997030;28;54888;-73
2023/01/22 07:08:13;;;;;;;;;27.75;13.00;;;;;4.25;100.00;102891.31;4997109;28;45277;-75
2023/01/22 07:10:39;;;;;;;;;28.00;22.00;;;;;4.26;100.00;102892.22;4995377;28;46387;-75
2023/01/22 07:13:06;;;;;;;;;29.00;19.50;;;;;4.25;100.00;102898.25;4993265;28;45400;-73
2023/01/22 07:15:32;;;;;;;;;28.75;19.00;;;;;4.24;100.00;102904.28;4997291;28;45515;-76
2023/01/22 07:17:57;;;;;;;;;25.25;22.25;;;;;4.24;100.00;102906.91;4998059;28;45451;-72
2023/01/22 07:20:22;;;;;;;;;22.75;19.25;;;;;4.28;100.00;102915.06;4996863;28;62744;-75
2023/01/22 07:22:48;;;;;;;;;24.50;19.75;;;;;4.28;100.00;102917.69;4992264;28;45520;-73
2023/01/22 07:25:14;;;;;;;;;35.25;25.25;;;;;4.30;100.00;102915.16;4994837;28;46783;-73
2023/01/22 07:27:39;;;;;;;;;33.75;23.75;;;;;4.32;100.00;102926.66;4990333;28;53800;-73
2023/01/22 07:30:06;;;;;;;;;33.25;20.50;;;;;4.34;100.00;102930.28;4992588;28;57594;-72
2023/01/22 07:32:31;;;;;;;;;24.75;19.50;;;;;4.31;100.00;102916.97;4996805;28;45333;-73
2023/01/22 07:34:56;;;;;;;;;28.25;24.75;;;;;4.31;100.00;102919.59;4996663;28;53869;-73
2023/01/22 07:37:22;;;;;;;;;23.50;18.00;;;;;4.33;100.00;102920.63;4997191;28;46485;-75
2023/01/22 07:39:47;;;;;;;;;34.50;24.00;;;;;4.33;100.00;102923.25;4996892;28;47618;-74
2023/01/22 07:42:13;;;;;;;;;24.25;17.00;;;;;4.36;100.00;102912.97;4996278;28;55851;-74
2023/01/22 07:44:41;;;;;;;;;29.75;19.75;;;;;4.36;100.00;102926.94;4993924;28;45461;-75
2023/01/22 07:47:06;;;;;;;;;31.25;21.75;;;;;4.38;100.00;102929.69;4993818;28;46185;-73
2023/01/22 07:49:31;;;;;;;;;29.50;23.75;;;;;4.40;100.00;102931.59;4996838;28;45342;-73
2023/01/22 07:51:57;;;;;;;;;33.75;24.50;;;;;4.36;100.00;102919.09;4989688;28;61001;-76
2023/01/22 07:54:22;;;;;;;;;24.00;21.50;;;;;4.39;100.00;102924.56;4996182;28;56457;-76
2023/01/22 07:56:48;;;;;;;;;38.00;21.25;;;;;4.40;100.00;102939.44;4996816;28;45548;-73
2023/01/22 07:59:13;;;;;;;;;31.50;25.75;;;;;4.41;100.00;102930.78;4996194;28;45459;-74
2023/01/22 08:01:38;;;;;;;;;32.25;21.00;;;;;4.43;100.00;102934.44;4995253;28;53753;-73
2023/01/22 08:04:04;;;;;;;;;28.50;26.00;;;;;4.46;100.00;102932.03;4995875;28;54957;-73
2023/01/22 08:06:29;;;;;;;;;22.50;17.00;;;;;4.48;100.00;102924.31;4990765;28;45566;-74
2023/01/22 08:08:55;;;;;;;;;27.25;21.25;;;;;4.45;100.00;102924.06;4996756;28;45782;-73
2023/01/22 08:11:20;;;;;;;;;31.25;21.75;;;;;4.41;100.00;102940.34;4993049;28;59634;-74
2023/01/22 08:13:46;;;;;;;;;31.00;21.75;;;;;4.35;100.00;102934.69;4995917;28;52205;-74
2023/01/22 08:16:11;;;;;;;;;28.75;15.25;;;;;4.33;100.00;102942.44;4996907;28;45301;-74
2023/01/22 08:18:37;;;;;;;;;17.75;14.75;;;;;4.34;100.00;102948.59;4996478;28;46176;-74
2023/01/22 08:21:02;;;;;;;;;26.75;16.00;;;;;4.35;100.00;102943.44;4993425;28;45522;-73
2023/01/22 08:23:28;;;;;;;;;20.50;19.25;;;;;4.38;100.00;102959.38;4993489;28;45414;-73
2023/01/22 08:25:57;;;;;;;;;21.50;17.75;;;;;4.44;100.00;102956.28;4993486;28;45519;-73
2023/01/22 08:28:22;;;;;;;;;31.50;17.75;;;;;4.51;100.00;102961.13;4994928;28;45718;-74
2023/01/22 08:30:48;;;;;;;;;22.50;14.50;;;;;4.58;100.00;102966.00;4992493;28;57155;-73
2023/01/22 08:33:14;;;;;;;;;23.25;18.00;;;;;4.61;100.00;102958.34;4994056;28;45369;-73
2023/01/22 08:35:39;;;;;;;;;15.75;11.75;;;;;4.63;100.00;102961.06;4994307;28;45640;-73
2023/01/22 08:38:05;;;;;;;;;28.25;18.25;;;;;4.65;100.00;102959.47;4985703;28;59446;-75
2023/01/22 08:40:30;;;;;;;;;18.50;14.50;;;;;4.65;100.00;102960.38;4987037;28;55433;-72
2023/01/22 08:42:56;;;;;;;;;23.25;16.25;;;;;4.69;100.00;102969.34;4990175;28;45505;-72
2023/01/22 08:45:21;;;;;;;;;24.00;19.50;;;;;4.71;100.00;102968.66;4996310;28;45427;-73
2023/01/22 08:47:46;;;;;;;;;21.50;14.50;;;;;4.77;100.00;102969.88;4994008;28;63648;-73
2023/01/22 08:50:12;;;;;;;;;25.75;18.50;;;;;4.77;100.00;102969.88;4993912;28;45372;-73
2023/01/22 08:52:38;;;;;;;;;17.25;15.00;;;;;4.84;100.00;102978.25;4992246;28;45453;-72
2023/01/22 08:55:05;;;;;;;;;18.50;14.50;;;;;4.88;100.00;102987.22;4994328;28;55381;-74
2023/01/22 08:57:31;;;;;;;;;25.50;14.25;;;;;4.92;100.00;102976.16;4989202;28;46931;-74
2023/01/22 08:59:56;;;;;;;;;26.25;21.50;;;;;4.95;100.00;102982.53;4989754;28;45451;-71
2023/01/22 09:02:21;;;;;;;;;16.00;13.50;;;;;4.95;100.00;102972.06;4991298;28;54482;-74
2023/01/22 09:04:47;;;;;;;;;23.25;15.75;;;;;4.99;100.00;102978.38;4992984;28;45436;-72
2023/01/22 09:07:12;;;;;;;;;22.75;18.75;;;;;5.04;100.00;102969.13;4993734;28;61990;-71
2023/01/22 09:09:37;;;;;;;;;22.75;15.75;;;;;5.09;100.00;102964.22;4991114;28;55545;-72
2023/01/22 09:12:03;;;;;;;;;20.00;16.50;;;;;5.13;100.00;102969.75;4984955;28;56547;-72
2023/01/22 09:14:28;;;;;;;;;25.25;17.25;;;;;5.19;100.00;102970.16;4989141;28;45483;-71
2023/01/22 09:16:54;;;;;;;;;20.25;15.00;;;;;5.29;100.00;102963.84;4984302;28;64683;-71
2023/01/22 09:19:19;;;;;;;;;24.50;15.25;;;;;5.37;100.00;102965.25;4986950;28;45502;-73
2023/01/22 09:21:45;;;;;;;;;19.00;16.50;;;;;5.49;100.00;102967.78;4984733;28;45456;-71
2023/01/22 09:24:10;;;;;;;;;26.50;19.75;;;;;5.56;100.00;102961.22;4990017;28;45561;-73
2023/01/22 09:26:36;;;;;;;;;20.00;12.75;;;;;5.61;100.00;102965.06;4992978;28;45481;-72
2023/01/22 09:29:04;;;;;;;;;24.75;16.75;;;;;5.68;100.00;102965.53;4993749;28;59161;-71
2023/01/22 09:31:31;;;;;;;;;24.25;17.75;;;;;5.75;100.00;102967.78;4993198;28;45602;-72
2023/01/22 09:33:56;;;;;;;;;24.75;20.50;;;;;5.80;100.00;102965.41;5001914;28;46369;-71
2023/01/22 09:36:21;;;;;;;;;14.50;12.50;;;;;5.82;100.00;102968.16;4993249;28;46390;-71
2023/01/22 09:38:47;;;;;;;;;24.25;18.75;;;;;5.83;100.00;102960.38;4993656;28;45541;-71
2023/01/22 09:41:24;;;;;;;;;24.75;20.50;;;;;5.86;100.00;102978.97;4994096;28;52811;-71
2023/01/22 09:43:56;;;;;;;;;28.75;25.00;;;;;5.85;100.00;102986.69;5006450;28;45349;-73
2023/01/22 09:46:26;;;;;;;;;23.75;17.25;;;;;5.85;100.00;102991.94;4994320;28;46487;-71
2023/01/22 09:48:56;;;;;;;;;27.50;17.00;;;;;5.84;100.00;102982.28;4993857;28;45502;-71
2023/01/22 09:51:21;;;;;;;;;22.50;16.75;;;;;5.86;100.00;102980.63;4987504;28;45526;-72
2023/01/22 09:53:57;;;;;;;;;27.00;18.50;;;;;5.88;100.00;103000.91;4994316;28;45486;-72
2023/01/22 09:56:29;;;;;;;;;23.75;17.00;;;;;5.88;100.00;102992.16;4992947;28;47150;-71
2023/01/22 09:58:56;;;;;;;;;21.50;16.00;;;;;5.88;100.00;102990.44;4991718;28;45526;-73
2023/01/22 10:01:22;;;;;;;;;22.25;18.75;;;;;5.90;100.00;102985.28;5091652;22;58556;-71
2023/01/22 10:03:59;;;;;;;;;22.00;14.75;;;;;5.90;100.00;102998.38;4994591;28;45545;-71
2023/01/22 10:06:24;;;;;;;;;25.50;15.50;;;;;5.90;100.00;102991.44;4995973;28;46203;-73
2023/01/22 10:08:52;;;;;;;;;23.50;15.00;;;;;5.91;100.00;102994.94;4995818;28;45491;-73
2023/01/22 10:11:18;;;;;;;;;22.00;16.75;;;;;5.92;100.00;102991.59;5000029;28;45823;-72
2023/01/22 10:13:43;;;;;;;;;24.25;16.75;;;;;5.92;100.00;103002.97;5001672;28;45518;-69
2023/01/22 10:16:10;;;;;;;;;21.00;13.00;;;;;5.93;100.00;102993.38;5001128;28;46627;-72
2023/01/22 10:18:46;;;;;;;;;15.75;13.75;;;;;5.93;100.00;103004.78;5000786;28;45521;-73
2023/01/22 10:21:18;;;;;;;;;20.25;16.50;;;;;5.94;100.00;102989.97;4998446;28;45583;-73
2023/01/22 10:23:43;;;;;;;;;30.00;16.75;;;;;5.99;100.00;102991.16;5000602;28;45388;-70
2023/01/22 10:26:24;;;;;;;;;24.50;16.00;;;;;5.99;100.00;102986.81;4995186;28;45859;-72
2023/01/22 10:28:51;;;;;;;;;22.50;18.75;;;;;6.01;100.00;103002.63;4991418;28;46623;-72
2023/01/22 10:31:26;;;;;;;;;26.75;15.75;;;;;6.01;100.00;102984.28;4995691;28;45370;-72
2023/01/22 10:34:00;;;;;;;;;22.50;15.25;;;;;6.10;100.00;102991.84;4985977;28;45594;-72
2023/01/22 10:36:27;;;;;;;;;23.50;18.25;;;;;6.15;100.00;102986.09;4991019;28;45723;-71
2023/01/22 10:39:12;;;;;;;;;22.25;17.50;;;;;6.20;100.00;102986.38;4995698;28;45563;-72
2023/01/22 10:41:38;;;;;;;;;27.00;16.50;;;;;6.24;100.00;102980.53;4994967;28;45562;-71
2023/01/22 10:44:20;;;;;;;;;16.75;15.00;;;;;6.26;100.00;102968.41;4993730;28;45543;-74
2023/01/22 10:46:48;;;;;;;;;20.75;19.50;;;;;6.29;100.00;102972.13;4993756;28;46537;-69
2023/01/22 10:49:16;;;;;;;;;20.75;17.75;;;;;6.35;100.00;102974.22;4994012;28;45722;-71
2023/01/22 10:51:45;;;;;;;;;18.25;13.25;;;;;6.39;100.00;102972.69;4996794;28;45562;-73
2023/01/22 10:54:29;;;;;;;;;30.25;18.00;;;;;6.45;100.00;102980.97;4986459;28;46958;-71
2023/01/22 10:57:15;;;;;;;;;23.75;18.25;;;;;6.48;100.00;102984.66;4993460;28;46484;-71
2023/01/22 10:59:48;;;;;;;;;14.25;14.25;;;;;6.50;100.00;102977.81;4994724;28;45355;-70
2023/01/22 11:02:19;;;;;;;;;16.25;13.25;;;;;6.52;100.00;102975.28;4988009;28;45448;-73
2023/01/22 11:04:45;;;;;;;;;19.75;17.00;;;;;6.53;100.00;102967.47;4994965;28;45419;-71
2023/01/22 11:07:29;;;;;;;;;14.00;13.25;;;;;6.54;100.00;102978.88;4992500;28;61310;-71
2023/01/22 11:10:36;;;;;;;;;19.75;13.25;;;;;6.53;100.00;102969.19;4992303;28;46552;-72
2023/01/22 11:13:12;;;;;;;;;20.00;16.25;;;;;6.48;100.00;102966.28;4989479;28;46542;-73
2023/01/22 11:15:55;;;;;;;;;23.25;16.50;;;;;6.49;100.00;102969.81;5008454;28;45580;-72